sensor_id;sensor_type;location;lat;lon;timestamp;P1;durP1;ratioP1;P2;durP2;ratioP2
79664;SDS011;69132;44.014;20.918;2024-02-23T00:01:28;19.10;;;12.25;;
79664;SDS011;69132;44.014;20.918;2024-02-23T00:03:54;18.88;;;10.98;;
79664;SDS011;69132;44.014;20.918;2024-02-23T00:06:21;13.65;;;9.18;;
79664;SDS011;69132;44.014;20.918;2024-02-23T00:08:52;13.82;;;8.43;;
79664;SDS011;69132;44.014;20.918;2024-02-23T00:11:19;12.52;;;7.38;;
79664;SDS011;69132;44.014;20.918;2024-02-23T00:13:46;9.80;;;6.97;;
79664;SDS011;69132;44.014;20.918;2024-02-23T00:16:13;11.48;;;7.38;;
79664;SDS011;69132;44.014;20.918;2024-02-23T00:18:39;11.55;;;7.00;;
79664;SDS011;69132;44.014;20.918;2024-02-23T00:24:09;10.27;;;7.22;;
79664;SDS011;69132;44.014;20.918;2024-02-23T00:26:35;12.80;;;8.52;;
79664;SDS011;69132;44.014;20.918;2024-02-23T00:29:02;12.85;;;8.88;;
79664;SDS011;69132;44.014;20.918;2024-02-23T00:31:28;15.18;;;9.90;;
79664;SDS011;69132;44.014;20.918;2024-02-23T00:33:54;11.70;;;8.13;;
79664;SDS011;69132;44.014;20.918;2024-02-23T00:36:21;14.65;;;9.73;;
79664;SDS011;69132;44.014;20.918;2024-02-23T00:38:47;15.35;;;10.10;;
79664;SDS011;69132;44.014;20.918;2024-02-23T00:41:13;17.08;;;9.18;;
79664;SDS011;69132;44.014;20.918;2024-02-23T00:43:39;13.07;;;8.65;;
79664;SDS011;69132;44.014;20.918;2024-02-23T00:46:06;11.35;;;7.97;;
79664;SDS011;69132;44.014;20.918;2024-02-23T00:48:32;13.40;;;8.85;;
79664;SDS011;69132;44.014;20.918;2024-02-23T00:50:59;10.88;;;7.15;;
79664;SDS011;69132;44.014;20.918;2024-02-23T00:53:25;9.77;;;6.55;;
79664;SDS011;69132;44.014;20.918;2024-02-23T00:55:51;9.27;;;6.00;;
79664;SDS011;69132;44.014;20.918;2024-02-23T00:58:17;11.43;;;6.65;;
79664;SDS011;69132;44.014;20.918;2024-02-23T01:00:43;9.80;;;5.53;;
79664;SDS011;69132;44.014;20.918;2024-02-23T01:03:10;9.65;;;6.13;;
79664;SDS011;69132;44.014;20.918;2024-02-23T01:08:26;9.57;;;5.85;;
79664;SDS011;69132;44.014;20.918;2024-02-23T01:10:52;9.77;;;6.88;;
79664;SDS011;69132;44.014;20.918;2024-02-23T01:13:18;8.45;;;5.70;;
79664;SDS011;69132;44.014;20.918;2024-02-23T01:15:44;10.55;;;6.05;;
79664;SDS011;69132;44.014;20.918;2024-02-23T01:18:10;9.30;;;6.43;;
79664;SDS011;69132;44.014;20.918;2024-02-23T01:20:36;10.85;;;6.82;;
79664;SDS011;69132;44.014;20.918;2024-02-23T01:23:02;9.10;;;5.95;;
79664;SDS011;69132;44.014;20.918;2024-02-23T01:25:29;11.35;;;6.47;;
79664;SDS011;69132;44.014;20.918;2024-02-23T01:27:55;9.40;;;5.82;;
79664;SDS011;69132;44.014;20.918;2024-02-23T01:30:21;8.68;;;5.93;;
79664;SDS011;69132;44.014;20.918;2024-02-23T01:38:37;8.20;;;5.75;;
79664;SDS011;69132;44.014;20.918;2024-02-23T01:41:04;7.00;;;5.28;;
79664;SDS011;69132;44.014;20.918;2024-02-23T01:43:32;8.90;;;5.63;;
79664;SDS011;69132;44.014;20.918;2024-02-23T01:45:58;6.85;;;5.20;;
79664;SDS011;69132;44.014;20.918;2024-02-23T01:51:36;8.98;;;5.63;;
79664;SDS011;69132;44.014;20.918;2024-02-23T01:54:03;9.32;;;5.70;;
79664;SDS011;69132;44.014;20.918;2024-02-23T01:56:30;8.45;;;5.53;;
79664;SDS011;69132;44.014;20.918;2024-02-23T02:01:59;9.60;;;6.13;;
79664;SDS011;69132;44.014;20.918;2024-02-23T02:04:25;11.82;;;6.95;;
79664;SDS011;69132;44.014;20.918;2024-02-23T02:06:52;10.55;;;6.03;;
79664;SDS011;69132;44.014;20.918;2024-02-23T02:09:31;9.52;;;6.00;;
79664;SDS011;69132;44.014;20.918;2024-02-23T02:11:58;8.73;;;6.38;;
79664;SDS011;69132;44.014;20.918;2024-02-23T02:16:56;8.20;;;5.55;;
79664;SDS011;69132;44.014;20.918;2024-02-23T02:19:22;7.60;;;5.43;;
79664;SDS011;69132;44.014;20.918;2024-02-23T02:21:48;11.23;;;5.93;;
79664;SDS011;69132;44.014;20.918;2024-02-23T02:24:14;7.75;;;5.90;;
79664;SDS011;69132;44.014;20.918;2024-02-23T02:26:40;8.65;;;5.28;;
79664;SDS011;69132;44.014;20.918;2024-02-23T02:29:11;8.07;;;5.78;;
79664;SDS011;69132;44.014;20.918;2024-02-23T02:31:37;8.10;;;5.45;;
79664;SDS011;69132;44.014;20.918;2024-02-23T02:34:04;7.00;;;4.97;;
79664;SDS011;69132;44.014;20.918;2024-02-23T02:36:30;6.53;;;4.97;;
79664;SDS011;69132;44.014;20.918;2024-02-23T02:38:56;7.90;;;5.70;;
79664;SDS011;69132;44.014;20.918;2024-02-23T02:41:24;7.75;;;4.90;;
79664;SDS011;69132;44.014;20.918;2024-02-23T02:43:53;6.35;;;5.20;;
79664;SDS011;69132;44.014;20.918;2024-02-23T02:46:20;7.55;;;5.40;;
79664;SDS011;69132;44.014;20.918;2024-02-23T02:51:15;5.57;;;4.53;;
79664;SDS011;69132;44.014;20.918;2024-02-23T02:53:41;6.90;;;4.95;;
79664;SDS011;69132;44.014;20.918;2024-02-23T02:56:07;7.55;;;4.82;;
79664;SDS011;69132;44.014;20.918;2024-02-23T02:58:33;7.43;;;5.35;;
79664;SDS011;69132;44.014;20.918;2024-02-23T03:00:59;6.03;;;4.22;;
79664;SDS011;69132;44.014;20.918;2024-02-23T03:03:25;6.18;;;4.50;;
79664;SDS011;69132;44.014;20.918;2024-02-23T03:05:51;7.63;;;5.07;;
79664;SDS011;69132;44.014;20.918;2024-02-23T03:08:17;6.50;;;4.50;;
79664;SDS011;69132;44.014;20.918;2024-02-23T03:13:34;6.45;;;4.32;;
79664;SDS011;69132;44.014;20.918;2024-02-23T03:16:01;5.35;;;3.83;;
79664;SDS011;69132;44.014;20.918;2024-02-23T03:18:28;6.10;;;4.20;;
79664;SDS011;69132;44.014;20.918;2024-02-23T03:20:54;10.18;;;4.75;;
79664;SDS011;69132;44.014;20.918;2024-02-23T03:23:20;5.13;;;4.30;;
79664;SDS011;69132;44.014;20.918;2024-02-23T03:25:47;6.78;;;4.47;;
79664;SDS011;69132;44.014;20.918;2024-02-23T03:28:13;6.53;;;5.30;;
79664;SDS011;69132;44.014;20.918;2024-02-23T03:30:39;6.55;;;3.92;;
79664;SDS011;69132;44.014;20.918;2024-02-23T03:33:06;6.45;;;4.50;;
79664;SDS011;69132;44.014;20.918;2024-02-23T03:35:32;6.13;;;4.50;;
79664;SDS011;69132;44.014;20.918;2024-02-23T03:38:01;7.75;;;4.53;;
79664;SDS011;69132;44.014;20.918;2024-02-23T03:40:27;5.35;;;4.38;;
79664;SDS011;69132;44.014;20.918;2024-02-23T03:42:53;6.45;;;4.32;;
79664;SDS011;69132;44.014;20.918;2024-02-23T03:45:19;6.03;;;4.38;;
79664;SDS011;69132;44.014;20.918;2024-02-23T03:47:46;5.95;;;4.78;;
79664;SDS011;69132;44.014;20.918;2024-02-23T03:50:13;5.95;;;4.53;;
79664;SDS011;69132;44.014;20.918;2024-02-23T03:52:39;7.15;;;5.13;;
79664;SDS011;69132;44.014;20.918;2024-02-23T03:55:07;7.85;;;5.05;;
79664;SDS011;69132;44.014;20.918;2024-02-23T04:00:18;7.53;;;5.55;;
79664;SDS011;69132;44.014;20.918;2024-02-23T04:02:45;10.02;;;6.40;;
79664;SDS011;69132;44.014;20.918;2024-02-23T04:08:11;11.95;;;7.63;;
79664;SDS011;69132;44.014;20.918;2024-02-23T04:10:38;9.82;;;6.68;;
79664;SDS011;69132;44.014;20.918;2024-02-23T04:13:05;10.13;;;6.75;;
79664;SDS011;69132;44.014;20.918;2024-02-23T04:15:31;10.93;;;6.45;;
79664;SDS011;69132;44.014;20.918;2024-02-23T04:18:01;8.20;;;6.00;;
79664;SDS011;69132;44.014;20.918;2024-02-23T04:20:27;11.38;;;6.22;;
79664;SDS011;69132;44.014;20.918;2024-02-23T04:22:53;8.77;;;5.93;;
79664;SDS011;69132;44.014;20.918;2024-02-23T04:28:19;10.90;;;6.10;;
79664;SDS011;69132;44.014;20.918;2024-02-23T04:30:45;7.65;;;6.75;;
79664;SDS011;69132;44.014;20.918;2024-02-23T04:33:11;12.95;;;9.07;;
79664;SDS011;69132;44.014;20.918;2024-02-23T04:35:37;9.85;;;7.47;;
79664;SDS011;69132;44.014;20.918;2024-02-23T04:38:06;10.25;;;7.22;;
79664;SDS011;69132;44.014;20.918;2024-02-23T04:40:33;10.80;;;6.97;;
79664;SDS011;69132;44.014;20.918;2024-02-23T04:42:59;9.63;;;6.70;;
79664;SDS011;69132;44.014;20.918;2024-02-23T04:45:25;12.27;;;8.65;;
79664;SDS011;69132;44.014;20.918;2024-02-23T04:47:51;8.23;;;6.78;;
79664;SDS011;69132;44.014;20.918;2024-02-23T04:50:17;7.22;;;6.03;;
79664;SDS011;69132;44.014;20.918;2024-02-23T04:52:44;8.68;;;6.03;;
79664;SDS011;69132;44.014;20.918;2024-02-23T04:55:10;6.22;;;4.65;;
79664;SDS011;69132;44.014;20.918;2024-02-23T04:57:36;9.00;;;5.43;;
79664;SDS011;69132;44.014;20.918;2024-02-23T05:00:05;4.97;;;4.45;;
79664;SDS011;69132;44.014;20.918;2024-02-23T05:02:32;5.70;;;4.70;;
79664;SDS011;69132;44.014;20.918;2024-02-23T05:05:06;9.30;;;5.28;;
79664;SDS011;69132;44.014;20.918;2024-02-23T05:07:33;6.70;;;4.82;;
79664;SDS011;69132;44.014;20.918;2024-02-23T05:09:59;7.80;;;4.68;;
79664;SDS011;69132;44.014;20.918;2024-02-23T05:15:29;5.85;;;4.50;;
79664;SDS011;69132;44.014;20.918;2024-02-23T05:17:55;5.88;;;5.03;;
79664;SDS011;69132;44.014;20.918;2024-02-23T05:20:22;6.25;;;4.88;;
79664;SDS011;69132;44.014;20.918;2024-02-23T05:22:48;10.30;;;5.35;;
79664;SDS011;69132;44.014;20.918;2024-02-23T05:25:14;7.13;;;4.78;;
79664;SDS011;69132;44.014;20.918;2024-02-23T05:27:40;8.40;;;5.18;;
79664;SDS011;69132;44.014;20.918;2024-02-23T05:30:06;6.30;;;4.95;;
79664;SDS011;69132;44.014;20.918;2024-02-23T05:32:33;6.07;;;4.78;;
79664;SDS011;69132;44.014;20.918;2024-02-23T05:35:00;8.82;;;5.10;;
79664;SDS011;69132;44.014;20.918;2024-02-23T05:37:26;7.03;;;5.07;;
79664;SDS011;69132;44.014;20.918;2024-02-23T05:39:52;7.18;;;4.82;;
79664;SDS011;69132;44.014;20.918;2024-02-23T05:42:20;7.75;;;5.15;;
79664;SDS011;69132;44.014;20.918;2024-02-23T05:44:46;5.75;;;5.15;;
79664;SDS011;69132;44.014;20.918;2024-02-23T05:47:13;10.80;;;6.35;;
79664;SDS011;69132;44.014;20.918;2024-02-23T05:49:40;7.82;;;5.47;;
79664;SDS011;69132;44.014;20.918;2024-02-23T05:52:07;10.90;;;6.50;;
79664;SDS011;69132;44.014;20.918;2024-02-23T05:54:33;6.25;;;5.15;;
79664;SDS011;69132;44.014;20.918;2024-02-23T05:56:59;8.20;;;5.30;;
79664;SDS011;69132;44.014;20.918;2024-02-23T05:59:26;6.72;;;4.97;;
79664;SDS011;69132;44.014;20.918;2024-02-23T06:01:53;9.00;;;5.25;;
79664;SDS011;69132;44.014;20.918;2024-02-23T06:04:22;7.80;;;5.25;;
79664;SDS011;69132;44.014;20.918;2024-02-23T06:06:48;6.35;;;5.05;;
79664;SDS011;69132;44.014;20.918;2024-02-23T06:09:15;10.43;;;6.00;;
79664;SDS011;69132;44.014;20.918;2024-02-23T06:11:41;6.60;;;4.68;;
79664;SDS011;69132;44.014;20.918;2024-02-23T06:14:07;7.95;;;5.30;;
79664;SDS011;69132;44.014;20.918;2024-02-23T06:16:34;7.45;;;5.25;;
79664;SDS011;69132;44.014;20.918;2024-02-23T06:19:01;6.40;;;5.35;;
79664;SDS011;69132;44.014;20.918;2024-02-23T06:21:28;9.60;;;5.90;;
79664;SDS011;69132;44.014;20.918;2024-02-23T06:23:55;11.30;;;5.72;;
79664;SDS011;69132;44.014;20.918;2024-02-23T06:26:21;6.85;;;5.05;;
79664;SDS011;69132;44.014;20.918;2024-02-23T06:28:49;7.28;;;4.47;;
79664;SDS011;69132;44.014;20.918;2024-02-23T06:31:15;9.85;;;5.72;;
79664;SDS011;69132;44.014;20.918;2024-02-23T06:33:41;6.70;;;4.85;;
79664;SDS011;69132;44.014;20.918;2024-02-23T06:38:50;5.90;;;4.85;;
79664;SDS011;69132;44.014;20.918;2024-02-23T06:41:17;8.55;;;4.97;;
79664;SDS011;69132;44.014;20.918;2024-02-23T06:43:43;6.97;;;5.72;;
79664;SDS011;69132;44.014;20.918;2024-02-23T06:49:07;8.05;;;5.53;;
79664;SDS011;69132;44.014;20.918;2024-02-23T06:51:33;8.20;;;5.35;;
79664;SDS011;69132;44.014;20.918;2024-02-23T06:54:00;8.70;;;6.05;;
79664;SDS011;69132;44.014;20.918;2024-02-23T06:56:28;11.00;;;6.75;;
79664;SDS011;69132;44.014;20.918;2024-02-23T06:58:55;9.20;;;6.50;;
79664;SDS011;69132;44.014;20.918;2024-02-23T07:01:21;12.43;;;6.78;;
79664;SDS011;69132;44.014;20.918;2024-02-23T07:03:47;10.50;;;7.30;;
79664;SDS011;69132;44.014;20.918;2024-02-23T07:06:16;10.10;;;7.27;;
79664;SDS011;69132;44.014;20.918;2024-02-23T07:08:44;10.55;;;7.70;;
79664;SDS011;69132;44.014;20.918;2024-02-23T07:11:11;12.20;;;6.88;;
79664;SDS011;69132;44.014;20.918;2024-02-23T07:13:37;8.80;;;6.13;;
79664;SDS011;69132;44.014;20.918;2024-02-23T07:16:03;8.15;;;6.53;;
79664;SDS011;69132;44.014;20.918;2024-02-23T07:18:29;12.43;;;8.02;;
79664;SDS011;69132;44.014;20.918;2024-02-23T07:20:55;13.13;;;8.50;;
79664;SDS011;69132;44.014;20.918;2024-02-23T07:23:23;9.82;;;6.82;;
79664;SDS011;69132;44.014;20.918;2024-02-23T07:25:49;10.32;;;6.30;;
79664;SDS011;69132;44.014;20.918;2024-02-23T07:28:17;9.98;;;6.88;;
79664;SDS011;69132;44.014;20.918;2024-02-23T07:33:11;8.50;;;6.40;;
79664;SDS011;69132;44.014;20.918;2024-02-23T07:35:38;6.70;;;5.53;;
79664;SDS011;69132;44.014;20.918;2024-02-23T07:38:04;8.38;;;5.50;;
79664;SDS011;69132;44.014;20.918;2024-02-23T07:40:30;8.23;;;5.45;;
79664;SDS011;69132;44.014;20.918;2024-02-23T07:42:57;11.65;;;7.10;;
79664;SDS011;69132;44.014;20.918;2024-02-23T07:45:23;9.07;;;5.68;;
79664;SDS011;69132;44.014;20.918;2024-02-23T07:47:50;10.68;;;6.72;;
79664;SDS011;69132;44.014;20.918;2024-02-23T07:50:23;9.18;;;6.97;;
79664;SDS011;69132;44.014;20.918;2024-02-23T07:52:49;12.07;;;7.28;;
79664;SDS011;69132;44.014;20.918;2024-02-23T07:55:15;10.75;;;6.05;;
79664;SDS011;69132;44.014;20.918;2024-02-23T07:57:41;8.70;;;6.03;;
79664;SDS011;69132;44.014;20.918;2024-02-23T08:00:10;7.97;;;6.03;;
79664;SDS011;69132;44.014;20.918;2024-02-23T08:02:39;10.30;;;6.47;;
79664;SDS011;69132;44.014;20.918;2024-02-23T08:05:06;10.02;;;7.45;;
79664;SDS011;69132;44.014;20.918;2024-02-23T08:07:32;14.43;;;8.73;;
79664;SDS011;69132;44.014;20.918;2024-02-23T08:09:58;11.63;;;7.10;;
79664;SDS011;69132;44.014;20.918;2024-02-23T08:14:59;12.23;;;7.78;;
79664;SDS011;69132;44.014;20.918;2024-02-23T08:17:28;10.63;;;7.00;;
79664;SDS011;69132;44.014;20.918;2024-02-23T08:19:54;10.00;;;6.60;;
79664;SDS011;69132;44.014;20.918;2024-02-23T08:22:21;9.88;;;6.70;;
79664;SDS011;69132;44.014;20.918;2024-02-23T08:24:48;12.98;;;7.72;;
79664;SDS011;69132;44.014;20.918;2024-02-23T08:27:14;13.27;;;7.75;;
79664;SDS011;69132;44.014;20.918;2024-02-23T08:29:40;10.38;;;6.95;;
79664;SDS011;69132;44.014;20.918;2024-02-23T08:32:06;11.15;;;7.50;;
79664;SDS011;69132;44.014;20.918;2024-02-23T08:34:33;8.15;;;6.65;;
79664;SDS011;69132;44.014;20.918;2024-02-23T08:37:00;9.75;;;6.47;;
79664;SDS011;69132;44.014;20.918;2024-02-23T08:39:26;10.90;;;6.38;;
79664;SDS011;69132;44.014;20.918;2024-02-23T08:41:54;10.43;;;6.90;;
79664;SDS011;69132;44.014;20.918;2024-02-23T08:44:20;10.55;;;6.97;;
79664;SDS011;69132;44.014;20.918;2024-02-23T08:46:46;9.10;;;6.70;;
79664;SDS011;69132;44.014;20.918;2024-02-23T08:49:13;8.23;;;5.53;;
79664;SDS011;69132;44.014;20.918;2024-02-23T08:51:39;11.35;;;6.22;;
79664;SDS011;69132;44.014;20.918;2024-02-23T08:54:06;9.07;;;6.10;;
79664;SDS011;69132;44.014;20.918;2024-02-23T08:56:39;7.43;;;5.70;;
79664;SDS011;69132;44.014;20.918;2024-02-23T08:59:07;10.82;;;6.88;;
79664;SDS011;69132;44.014;20.918;2024-02-23T09:01:34;9.25;;;6.75;;
79664;SDS011;69132;44.014;20.918;2024-02-23T09:04:01;10.25;;;6.00;;
79664;SDS011;69132;44.014;20.918;2024-02-23T09:06:27;13.77;;;6.53;;
79664;SDS011;69132;44.014;20.918;2024-02-23T09:08:54;15.30;;;7.00;;
79664;SDS011;69132;44.014;20.918;2024-02-23T09:11:22;10.15;;;7.13;;
79664;SDS011;69132;44.014;20.918;2024-02-23T09:13:50;8.52;;;5.82;;
79664;SDS011;69132;44.014;20.918;2024-02-23T09:16:16;9.27;;;6.30;;
79664;SDS011;69132;44.014;20.918;2024-02-23T09:18:45;8.50;;;6.30;;
79664;SDS011;69132;44.014;20.918;2024-02-23T09:21:12;11.35;;;6.57;;
79664;SDS011;69132;44.014;20.918;2024-02-23T09:23:39;10.40;;;6.72;;
79664;SDS011;69132;44.014;20.918;2024-02-23T09:28:41;9.43;;;6.75;;
79664;SDS011;69132;44.014;20.918;2024-02-23T09:31:07;11.63;;;7.45;;
79664;SDS011;69132;44.014;20.918;2024-02-23T09:33:33;11.45;;;7.30;;
79664;SDS011;69132;44.014;20.918;2024-02-23T09:36:00;9.88;;;6.72;;
79664;SDS011;69132;44.014;20.918;2024-02-23T09:38:27;9.38;;;5.93;;
79664;SDS011;69132;44.014;20.918;2024-02-23T09:40:53;9.75;;;6.50;;
79664;SDS011;69132;44.014;20.918;2024-02-23T09:43:21;7.97;;;5.78;;
79664;SDS011;69132;44.014;20.918;2024-02-23T09:45:50;8.98;;;6.43;;
79664;SDS011;69132;44.014;20.918;2024-02-23T09:48:18;11.88;;;6.85;;
79664;SDS011;69132;44.014;20.918;2024-02-23T09:50:46;9.63;;;6.78;;
79664;SDS011;69132;44.014;20.918;2024-02-23T09:56:01;9.83;;;6.77;;
79664;SDS011;69132;44.014;20.918;2024-02-23T09:58:28;10.98;;;7.57;;
79664;SDS011;69132;44.014;20.918;2024-02-23T10:00:55;16.38;;;10.75;;
79664;SDS011;69132;44.014;20.918;2024-02-23T10:03:22;11.20;;;6.95;;
79664;SDS011;69132;44.014;20.918;2024-02-23T10:05:52;9.73;;;7.40;;
79664;SDS011;69132;44.014;20.918;2024-02-23T10:08:18;11.00;;;7.50;;
79664;SDS011;69132;44.014;20.918;2024-02-23T10:10:45;10.55;;;7.40;;
79664;SDS011;69132;44.014;20.918;2024-02-23T10:13:12;10.83;;;7.70;;
79664;SDS011;69132;44.014;20.918;2024-02-23T10:15:39;13.27;;;7.85;;
79664;SDS011;69132;44.014;20.918;2024-02-23T10:18:24;14.00;;;7.97;;
79664;SDS011;69132;44.014;20.918;2024-02-23T10:20:50;11.35;;;7.72;;
79664;SDS011;69132;44.014;20.918;2024-02-23T10:23:17;13.35;;;8.00;;
79664;SDS011;69132;44.014;20.918;2024-02-23T10:25:45;15.10;;;9.82;;
79664;SDS011;69132;44.014;20.918;2024-02-23T10:28:21;16.63;;;9.77;;
79664;SDS011;69132;44.014;20.918;2024-02-23T10:30:48;11.82;;;7.63;;
79664;SDS011;69132;44.014;20.918;2024-02-23T10:33:14;13.20;;;9.05;;
79664;SDS011;69132;44.014;20.918;2024-02-23T10:35:42;10.63;;;7.22;;
79664;SDS011;69132;44.014;20.918;2024-02-23T10:40:38;10.85;;;7.57;;
79664;SDS011;69132;44.014;20.918;2024-02-23T10:43:10;13.57;;;7.90;;
79664;SDS011;69132;44.014;20.918;2024-02-23T10:45:38;12.70;;;8.55;;
79664;SDS011;69132;44.014;20.918;2024-02-23T10:48:16;14.02;;;8.88;;
79664;SDS011;69132;44.014;20.918;2024-02-23T10:50:43;12.57;;;8.68;;
79664;SDS011;69132;44.014;20.918;2024-02-23T10:53:11;12.27;;;7.47;;
79664;SDS011;69132;44.014;20.918;2024-02-23T10:55:39;9.75;;;6.45;;
79664;SDS011;69132;44.014;20.918;2024-02-23T10:58:08;11.93;;;8.20;;
79664;SDS011;69132;44.014;20.918;2024-02-23T11:00:37;10.13;;;6.05;;
79664;SDS011;69132;44.014;20.918;2024-02-23T11:03:05;8.38;;;5.68;;
79664;SDS011;69132;44.014;20.918;2024-02-23T11:05:32;9.48;;;6.00;;
79664;SDS011;69132;44.014;20.918;2024-02-23T11:07:59;8.23;;;6.43;;
79664;SDS011;69132;44.014;20.918;2024-02-23T11:10:25;9.50;;;6.75;;
79664;SDS011;69132;44.014;20.918;2024-02-23T11:13:07;7.85;;;5.90;;
79664;SDS011;69132;44.014;20.918;2024-02-23T11:15:33;8.30;;;6.50;;
79664;SDS011;69132;44.014;20.918;2024-02-23T11:18:20;8.15;;;5.43;;
79664;SDS011;69132;44.014;20.918;2024-02-23T11:20:53;6.95;;;5.18;;
79664;SDS011;69132;44.014;20.918;2024-02-23T11:23:22;9.27;;;5.20;;
79664;SDS011;69132;44.014;20.918;2024-02-23T11:25:58;7.80;;;5.72;;
79664;SDS011;69132;44.014;20.918;2024-02-23T11:28:27;6.43;;;5.00;;
79664;SDS011;69132;44.014;20.918;2024-02-23T11:30:53;7.40;;;5.68;;
79664;SDS011;69132;44.014;20.918;2024-02-23T11:33:26;9.65;;;6.70;;
79664;SDS011;69132;44.014;20.918;2024-02-23T11:35:53;8.73;;;4.88;;
79664;SDS011;69132;44.014;20.918;2024-02-23T11:38:21;8.23;;;5.93;;
79664;SDS011;69132;44.014;20.918;2024-02-23T11:40:48;10.57;;;7.80;;
79664;SDS011;69132;44.014;20.918;2024-02-23T11:43:14;9.35;;;6.03;;
79664;SDS011;69132;44.014;20.918;2024-02-23T11:45:46;6.18;;;4.07;;
79664;SDS011;69132;44.014;20.918;2024-02-23T11:48:12;5.45;;;4.20;;
79664;SDS011;69132;44.014;20.918;2024-02-23T11:50:41;7.00;;;5.40;;
79664;SDS011;69132;44.014;20.918;2024-02-23T11:53:09;9.00;;;6.20;;
79664;SDS011;69132;44.014;20.918;2024-02-23T11:55:35;7.20;;;5.50;;
79664;SDS011;69132;44.014;20.918;2024-02-23T11:58:01;7.72;;;4.82;;
79664;SDS011;69132;44.014;20.918;2024-02-23T12:00:27;6.32;;;4.35;;
79664;SDS011;69132;44.014;20.918;2024-02-23T12:02:55;5.82;;;4.47;;
79664;SDS011;69132;44.014;20.918;2024-02-23T12:05:21;9.50;;;6.00;;
79664;SDS011;69132;44.014;20.918;2024-02-23T12:07:48;8.43;;;5.13;;
79664;SDS011;69132;44.014;20.918;2024-02-23T12:10:14;8.38;;;5.85;;
79664;SDS011;69132;44.014;20.918;2024-02-23T12:12:43;9.13;;;5.20;;
79664;SDS011;69132;44.014;20.918;2024-02-23T12:15:09;9.25;;;5.72;;
79664;SDS011;69132;44.014;20.918;2024-02-23T12:17:35;7.50;;;5.10;;
79664;SDS011;69132;44.014;20.918;2024-02-23T12:20:02;10.10;;;6.38;;
79664;SDS011;69132;44.014;20.918;2024-02-23T12:22:30;7.57;;;5.63;;
79664;SDS011;69132;44.014;20.918;2024-02-23T12:25:00;7.75;;;5.32;;
79664;SDS011;69132;44.014;20.918;2024-02-23T12:27:36;8.55;;;5.90;;
79664;SDS011;69132;44.014;20.918;2024-02-23T12:30:02;6.93;;;5.55;;
79664;SDS011;69132;44.014;20.918;2024-02-23T12:32:29;10.00;;;5.97;;
79664;SDS011;69132;44.014;20.918;2024-02-23T12:34:55;13.52;;;6.55;;
79664;SDS011;69132;44.014;20.918;2024-02-23T12:37:21;7.15;;;4.85;;
79664;SDS011;69132;44.014;20.918;2024-02-23T12:39:48;7.72;;;5.40;;
79664;SDS011;69132;44.014;20.918;2024-02-23T12:42:15;6.72;;;5.05;;
79664;SDS011;69132;44.014;20.918;2024-02-23T12:44:44;6.65;;;5.03;;
79664;SDS011;69132;44.014;20.918;2024-02-23T12:47:11;6.30;;;5.20;;
79664;SDS011;69132;44.014;20.918;2024-02-23T12:49:37;9.30;;;5.95;;
79664;SDS011;69132;44.014;20.918;2024-02-23T12:52:04;6.63;;;5.13;;
79664;SDS011;69132;44.014;20.918;2024-02-23T12:54:31;6.20;;;3.58;;
79664;SDS011;69132;44.014;20.918;2024-02-23T12:56:57;5.63;;;3.42;;
79664;SDS011;69132;44.014;20.918;2024-02-23T12:59:24;5.22;;;3.50;;
79664;SDS011;69132;44.014;20.918;2024-02-23T13:01:51;5.57;;;3.88;;
79664;SDS011;69132;44.014;20.918;2024-02-23T13:04:17;4.65;;;3.42;;
79664;SDS011;69132;44.014;20.918;2024-02-23T13:06:43;5.10;;;4.35;;
79664;SDS011;69132;44.014;20.918;2024-02-23T13:09:10;5.28;;;3.63;;
79664;SDS011;69132;44.014;20.918;2024-02-23T13:11:37;5.75;;;3.72;;
79664;SDS011;69132;44.014;20.918;2024-02-23T13:14:04;5.22;;;3.60;;
79664;SDS011;69132;44.014;20.918;2024-02-23T13:16:30;6.35;;;3.80;;
79664;SDS011;69132;44.014;20.918;2024-02-23T13:18:56;7.30;;;3.50;;
79664;SDS011;69132;44.014;20.918;2024-02-23T13:21:23;6.18;;;4.60;;
79664;SDS011;69132;44.014;20.918;2024-02-23T13:23:49;7.97;;;5.38;;
79664;SDS011;69132;44.014;20.918;2024-02-23T13:26:15;7.10;;;4.28;;
79664;SDS011;69132;44.014;20.918;2024-02-23T13:28:42;5.47;;;4.28;;
79664;SDS011;69132;44.014;20.918;2024-02-23T13:31:09;6.82;;;4.35;;
79664;SDS011;69132;44.014;20.918;2024-02-23T13:33:36;5.82;;;4.20;;
79664;SDS011;69132;44.014;20.918;2024-02-23T13:36:03;7.45;;;4.38;;
79664;SDS011;69132;44.014;20.918;2024-02-23T13:38:29;4.88;;;4.00;;
79664;SDS011;69132;44.014;20.918;2024-02-23T13:40:57;3.78;;;3.28;;
79664;SDS011;69132;44.014;20.918;2024-02-23T13:43:23;6.05;;;4.60;;
79664;SDS011;69132;44.014;20.918;2024-02-23T13:45:50;8.25;;;4.97;;
79664;SDS011;69132;44.014;20.918;2024-02-23T13:48:17;5.18;;;4.28;;
79664;SDS011;69132;44.014;20.918;2024-02-23T13:50:46;8.52;;;4.63;;
79664;SDS011;69132;44.014;20.918;2024-02-23T13:53:14;7.82;;;5.53;;
79664;SDS011;69132;44.014;20.918;2024-02-23T13:55:40;7.15;;;5.10;;
79664;SDS011;69132;44.014;20.918;2024-02-23T13:58:09;6.38;;;4.97;;
79664;SDS011;69132;44.014;20.918;2024-02-23T14:00:35;8.77;;;5.15;;
79664;SDS011;69132;44.014;20.918;2024-02-23T14:03:02;7.93;;;4.80;;
79664;SDS011;69132;44.014;20.918;2024-02-23T14:05:30;7.93;;;5.07;;
79664;SDS011;69132;44.014;20.918;2024-02-23T14:07:56;6.85;;;5.65;;
79664;SDS011;69132;44.014;20.918;2024-02-23T14:10:23;8.60;;;5.90;;
79664;SDS011;69132;44.014;20.918;2024-02-23T14:12:50;10.57;;;5.78;;
79664;SDS011;69132;44.014;20.918;2024-02-23T14:15:17;8.10;;;4.45;;
79664;SDS011;69132;44.014;20.918;2024-02-23T14:17:47;6.88;;;4.90;;
79664;SDS011;69132;44.014;20.918;2024-02-23T14:20:14;7.25;;;3.83;;
79664;SDS011;69132;44.014;20.918;2024-02-23T14:22:43;7.57;;;5.05;;
79664;SDS011;69132;44.014;20.918;2024-02-23T14:25:09;9.48;;;5.32;;
79664;SDS011;69132;44.014;20.918;2024-02-23T14:27:37;4.70;;;3.67;;
79664;SDS011;69132;44.014;20.918;2024-02-23T14:30:04;5.13;;;3.95;;
79664;SDS011;69132;44.014;20.918;2024-02-23T14:32:34;9.30;;;5.93;;
79664;SDS011;69132;44.014;20.918;2024-02-23T14:35:02;6.70;;;4.65;;
79664;SDS011;69132;44.014;20.918;2024-02-23T14:37:34;6.65;;;4.93;;
79664;SDS011;69132;44.014;20.918;2024-02-23T14:40:01;8.48;;;5.47;;
79664;SDS011;69132;44.014;20.918;2024-02-23T14:42:28;6.38;;;5.03;;
79664;SDS011;69132;44.014;20.918;2024-02-23T14:44:54;9.63;;;5.07;;
79664;SDS011;69132;44.014;20.918;2024-02-23T14:47:20;8.52;;;4.65;;
79664;SDS011;69132;44.014;20.918;2024-02-23T14:49:47;7.00;;;4.82;;
79664;SDS011;69132;44.014;20.918;2024-02-23T14:52:15;7.68;;;4.75;;
79664;SDS011;69132;44.014;20.918;2024-02-23T14:54:42;8.10;;;4.63;;
79664;SDS011;69132;44.014;20.918;2024-02-23T14:57:08;6.10;;;4.45;;
79664;SDS011;69132;44.014;20.918;2024-02-23T14:59:35;6.53;;;4.40;;
79664;SDS011;69132;44.014;20.918;2024-02-23T15:02:04;6.13;;;3.97;;
79664;SDS011;69132;44.014;20.918;2024-02-23T15:04:30;14.30;;;5.65;;
79664;SDS011;69132;44.014;20.918;2024-02-23T15:06:57;5.82;;;4.45;;
79664;SDS011;69132;44.014;20.918;2024-02-23T15:09:24;5.80;;;4.20;;
79664;SDS011;69132;44.014;20.918;2024-02-23T15:11:50;7.28;;;5.65;;
79664;SDS011;69132;44.014;20.918;2024-02-23T15:14:16;5.93;;;4.82;;
79664;SDS011;69132;44.014;20.918;2024-02-23T15:16:42;7.88;;;4.47;;
79664;SDS011;69132;44.014;20.918;2024-02-23T15:19:09;7.95;;;6.38;;
79664;SDS011;69132;44.014;20.918;2024-02-23T15:21:35;7.10;;;5.55;;
79664;SDS011;69132;44.014;20.918;2024-02-23T15:24:08;10.55;;;6.65;;
79664;SDS011;69132;44.014;20.918;2024-02-23T15:26:35;10.75;;;6.53;;